Terminal Aerodrome Forecast
Issued by NWS

Current Version | Previous Version | Text Only | Print | Product List | Glossary On
Versions: 1 2 3 4 5 6 7 8 9 10 11 12 13 14
000
FTUS46 KLOX 272341
TAFPMD
TAF
KPMD 272341Z 2800/2824 24016G22KT P6SM SKC
     FM280300 22010KT P6SM SKC
     FM281500 VRB05KT P6SM SKC
     FM281800 27005KT P6SM SKC
     FM282100 25010KT P6SM SKC
     FM282300 25016G22KT P6SM SKC=

USA.gov is the U.S. government's official web portal to all federal, state and local government web resources and services.